Pemberton, MN (56078)

11:42 PM CDT die 30o August, anno 2015 (GMT -0500)
Blue Valley Sod | | Change Station
CLOSE
Current Station
Personal Weather Stations
Location: Mapleton, MN
Elevation: 1014 ft
Nearby Weather Stations

Elev 1014 ft 43.94 °N, 93.83 °W | Updated 11 minutes ago

Serena
Serena
64.3 °F
Feels Like 64.3 °F
N
0.0
Ventus Variabilis Ventus from Auster
Gusts 0.0 mph

Hodie
High -- | Low -- °F
--% Chance of Precip.
Yesterday
High -- | Low -- °F
Precip. -- in
6:35 AM 7:54 PM
Full, 97% visible
Pressio 29.97 in
Visibilitas 7.0 milia passuum
Clouds Serena
Frigus in quo Ros apparet 63 °F
Umor 96%
Rainfall 0.01 in
Snow Depth Not available.
UV 0 out of 12
Pollen 9.90 out of 12
Air Quality Not available.
Flu Activity Not available.
METAR KACQ 310414Z AUTO 16005KT 7SM CLR 17/16 A2997 RMK AO2
Pressio 29.97 in
Visibilitas 7.0 milia passuum
Clouds Serena
Frigus in quo Ros apparet 63 °F
Umor 96%
Rainfall 0.01 in
Snow Depth Not available.
UV 0 out of 12
Pollen 9.90 out of 12
Air Quality Not available.
Flu Activity Not available.
METAR KACQ 310414Z AUTO 16005KT 7SM CLR 17/16 A2997 RMK AO2

10-Day Weather Forecast

×

Almanac

Astronomy

Aug. 30, 2015 Rise Set
Actual Time
Civil Twilight
Nautical Twilight
Astronomical Twilight
Moon
Length Of Visible Light
Length of Day
Tomorrow will be .
, % of the Moon is Illuminated

Today's Extremes

State Highs State Lows

Community

WunderPhotos

Upload Photos

1,851,207 photos uploaded!

WunderBlogs® & News

Nearby

Air Quality

  Air Quality AQ Index Pollutant
Not available.

Snow Depth

Station Depth Elevation

Earthquake Activity

City Distance Mag. Time & Date
Minimum magnitude displayed is 2.5.

Coastal Water Temperatures

Locus Calor

Stations

Nearby Weather Stations

Station Location Temp Frigus Venti Frigus in quo Ros apparet Umor Ventus Precip. Elev Renovata Type